FLR417 FMEE-FMEP
Flight info
| Callsign | FLR417 |
|---|---|
| Flight time | N/A |
| Altitude | 2800 |
| Route | SP |
| Aircraft | EC35/L-VD/C |
Departure
| Time | 2026-04-29 15:51 |
|---|---|
| Airport | Roland Garros Airport (FMEE) |
Arrival
| Time | N/A |
|---|---|
| Airport | Saint-Pierre Pierrefonds Airport (FMEP) |
| Time | Latitude | Longitude | Altitude | Speed | Heading |
|---|---|---|---|---|---|
| 2026-04-29 15:46 | -20.89452 | 55.52034 | 60 ft | 0 kts | 218° |
| 2026-04-29 15:50 | -20.89462 | 55.52027 | 68 ft | 4 kts | 304° |
| 2026-04-29 15:50 | -20.89463 | 55.52047 | 114 ft | 13 kts | 60° |
| 2026-04-29 15:51 | -20.89444 | 55.52174 | 128 ft | 14 kts | 16° |
| 2026-04-29 15:51 | -20.89332 | 55.52180 | 264 ft | 42 kts | 335° |
| 2026-04-29 15:51 | -20.89081 | 55.51749 | 417 ft | 91 kts | 297° |
| 2026-04-29 15:51 | -20.88796 | 55.51050 | 749 ft | 116 kts | 284° |
| 2026-04-29 15:52 | -20.88651 | 55.50165 | 1140 ft | 124 kts | 280° |
| 2026-04-29 15:52 | -20.88544 | 55.49261 | 1527 ft | 124 kts | 282° |
| 2026-04-29 15:52 | -20.88208 | 55.48436 | 2034 ft | 116 kts | 303° |
| 2026-04-29 15:52 | -20.87709 | 55.47906 | 2790 ft | 83 kts | 328° |
| 2026-04-29 15:53 | -20.87312 | 55.47676 | 3332 ft | 65 kts | 315° |
| 2026-04-29 15:53 | -20.86950 | 55.47039 | 3021 ft | 135 kts | 301° |
| 2026-04-29 15:53 | -20.86439 | 55.46057 | 2904 ft | 152 kts | 300° |
| 2026-04-29 15:53 | -20.85935 | 55.45071 | 2913 ft | 153 kts | 298° |
| 2026-04-29 15:54 | -20.85439 | 55.44066 | 2924 ft | 154 kts | 298° |
| 2026-04-29 15:54 | -20.84957 | 55.43044 | 2928 ft | 154 kts | 297° |
| 2026-04-29 15:54 | -20.84516 | 55.42011 | 2912 ft | 152 kts | 286° |
| 2026-04-29 15:54 | -20.84726 | 55.40910 | 2882 ft | 153 kts | 242° |
| 2026-04-29 15:55 | -20.85341 | 55.40015 | 2929 ft | 149 kts | 233° |
| 2026-04-29 15:55 | -20.86008 | 55.39156 | 2934 ft | 150 kts | 232° |
| 2026-04-29 15:55 | -20.86685 | 55.38303 | 2913 ft | 152 kts | 231° |
| 2026-04-29 15:55 | -20.87355 | 55.37445 | 2920 ft | 151 kts | 232° |
| 2026-04-29 15:56 | -20.88026 | 55.36590 | 2931 ft | 149 kts | 231° |
| 2026-04-29 15:56 | -20.88693 | 55.35739 | 2913 ft | 149 kts | 232° |
| 2026-04-29 15:56 | -20.89348 | 55.34896 | 2916 ft | 150 kts | 231° |
| 2026-04-29 15:56 | -20.90002 | 55.34022 | 2924 ft | 151 kts | 231° |
| 2026-04-29 15:57 | -20.90580 | 55.33247 | 2915 ft | 153 kts | 231° |
| 2026-04-29 15:57 | -20.91279 | 55.32372 | 2932 ft | 156 kts | 230° |
| 2026-04-29 15:57 | -20.91998 | 55.31501 | 2927 ft | 157 kts | 230° |
| 2026-04-29 15:57 | -20.92721 | 55.30630 | 2926 ft | 156 kts | 230° |
| 2026-04-29 15:58 | -20.93434 | 55.29772 | 2925 ft | 152 kts | 230° |
| 2026-04-29 15:58 | -20.94126 | 55.28926 | 2930 ft | 150 kts | 230° |
| 2026-04-29 15:58 | -20.94814 | 55.28082 | 2934 ft | 149 kts | 230° |
| 2026-04-29 15:58 | -20.95501 | 55.27244 | 2914 ft | 152 kts | 231° |
| 2026-04-29 15:59 | -20.96190 | 55.26396 | 2925 ft | 152 kts | 230° |
| 2026-04-29 15:59 | -20.96877 | 55.25532 | 2929 ft | 153 kts | 231° |
| 2026-04-29 15:59 | -20.97576 | 55.24672 | 2933 ft | 153 kts | 230° |
| 2026-04-29 15:59 | -20.98270 | 55.23801 | 2933 ft | 153 kts | 230° |
| 2026-04-29 16:00 | -20.98970 | 55.22934 | 2932 ft | 156 kts | 230° |
| 2026-04-29 16:00 | -20.99691 | 55.22064 | 2932 ft | 156 kts | 230° |
| 2026-04-29 16:00 | -21.00401 | 55.21188 | 2929 ft | 156 kts | 230° |
| 2026-04-29 16:00 | -21.01113 | 55.20306 | 2925 ft | 157 kts | 230° |
| 2026-04-29 16:01 | -21.01836 | 55.19436 | 2923 ft | 156 kts | 230° |
| 2026-04-29 16:01 | -21.02549 | 55.18570 | 2920 ft | 155 kts | 230° |
| 2026-04-29 16:01 | -21.03318 | 55.17800 | 2910 ft | 154 kts | 208° |